createdAt,value
2017-08-02T00:00:22.961Z,0
2017-08-02T00:01:24.673Z,0
2017-08-02T00:02:26.477Z,0
2017-08-02T00:03:28.191Z,0
2017-08-02T00:04:29.915Z,0
2017-08-02T00:05:31.636Z,0
2017-08-02T00:06:33.348Z,0
2017-08-02T00:07:35.195Z,0
2017-08-02T00:08:36.921Z,0
2017-08-02T00:09:38.897Z,0
2017-08-02T00:10:40.992Z,0
2017-08-02T00:11:42.801Z,0
2017-08-02T00:12:44.514Z,0
2017-08-02T00:13:47.527Z,0
2017-08-02T00:14:49.647Z,0
2017-08-02T00:15:51.610Z,0
2017-08-02T00:16:53.331Z,0
2017-08-02T00:17:55.261Z,0
2017-08-02T00:18:57.075Z,0
2017-08-02T00:19:58.824Z,0
2017-08-02T00:21:00.541Z,0
2017-08-02T00:22:02.222Z,0
2017-08-02T00:23:04.127Z,0
2017-08-02T00:24:05.820Z,0
2017-08-02T00:25:07.569Z,0
2017-08-02T00:26:09.307Z,0
2017-08-02T00:27:10.983Z,0
2017-08-02T00:28:12.701Z,0
2017-08-02T00:29:15.544Z,0
2017-08-02T00:30:17.278Z,0
2017-08-02T00:31:19.059Z,0
2017-08-02T00:32:20.716Z,0
2017-08-02T00:33:22.673Z,0
2017-08-02T00:34:26.528Z,0
2017-08-02T00:35:28.242Z,0
2017-08-02T00:36:29.894Z,0
2017-08-02T00:37:31.751Z,0
2017-08-02T00:38:33.395Z,0
2017-08-02T00:39:35.213Z,0
2017-08-02T00:40:36.877Z,0
2017-08-02T00:41:39.572Z,0
2017-08-02T00:42:42.041Z,0
2017-08-02T00:43:44.502Z,0
2017-08-02T00:44:48.087Z,0
2017-08-02T00:45:50.302Z,0
2017-08-02T00:46:51.957Z,0
2017-08-02T00:47:53.793Z,0
2017-08-02T00:48:55.451Z,0
2017-08-02T00:49:57.381Z,0
2017-08-02T00:50:59.225Z,0
2017-08-02T00:52:00.990Z,0
2017-08-02T00:53:03.453Z,0
2017-08-02T00:54:05.352Z,0
2017-08-02T00:55:07.159Z,0
2017-08-02T00:56:08.898Z,0
2017-08-02T00:57:10.551Z,0
2017-08-02T00:58:12.292Z,0
2017-08-02T00:59:13.948Z,0
2017-08-02T01:00:15.707Z,0
2017-08-02T01:01:17.353Z,0
2017-08-02T01:02:19.208Z,0
2017-08-02T01:03:20.858Z,0
2017-08-02T01:04:22.698Z,0
2017-08-02T01:05:24.342Z,0
2017-08-02T01:06:26.172Z,0
2017-08-02T01:07:27.818Z,0
2017-08-02T01:08:29.563Z,0
2017-08-02T01:09:31.214Z,0
2017-08-02T01:10:32.990Z,0
2017-08-02T01:11:34.646Z,0
2017-08-02T01:12:36.299Z,0
2017-08-02T01:13:37.954Z,0
2017-08-02T01:14:40.324Z,0
2017-08-02T01:15:41.980Z,0
2017-08-02T01:16:43.625Z,0
2017-08-02T01:17:45.277Z,0
2017-08-02T01:18:46.927Z,0
2017-08-02T01:19:48.604Z,0
2017-08-02T01:20:50.254Z,0
2017-08-02T01:21:51.916Z,0
2017-08-02T01:22:53.561Z,0
2017-08-02T01:23:55.211Z,0
2017-08-02T01:24:57.604Z,0
2017-08-02T01:25:59.254Z,0
2017-08-02T01:27:00.914Z,0
2017-08-02T01:28:02.591Z,0
2017-08-02T01:29:04.248Z,0
2017-08-02T01:30:05.898Z,0
2017-08-02T01:31:07.583Z,0
2017-08-02T01:32:09.313Z,0
2017-08-02T01:33:10.993Z,0
2017-08-02T01:34:12.640Z,0
2017-08-02T01:35:14.301Z,0
2017-08-02T01:36:15.957Z,0
2017-08-02T01:37:17.630Z,0
2017-08-02T01:38:19.300Z,0
2017-08-02T01:39:20.957Z,0
2017-08-02T01:40:22.609Z,0
2017-08-02T01:41:24.268Z,0
2017-08-02T01:42:25.920Z,0
2017-08-02T01:43:27.575Z,0
2017-08-02T01:44:30.168Z,0
2017-08-02T01:45:31.829Z,0
2017-08-02T01:46:33.504Z,0
2017-08-02T01:47:35.191Z,0
2017-08-02T01:48:36.846Z,0
2017-08-02T01:49:38.562Z,0
2017-08-02T01:50:40.208Z,0
2017-08-02T01:51:41.878Z,0
2017-08-02T01:52:43.537Z,0
2017-08-02T01:53:45.186Z,0
2017-08-02T01:54:47.002Z,0
2017-08-02T01:55:48.674Z,0
2017-08-02T01:56:50.442Z,0
2017-08-02T01:57:52.089Z,0
2017-08-02T01:58:53.828Z,0
2017-08-02T01:59:55.501Z,0
2017-08-02T02:00:57.332Z,0
2017-08-02T02:01:58.990Z,0
2017-08-02T02:03:00.661Z,0
2017-08-02T02:04:02.331Z,0
2017-08-02T02:05:04.129Z,0
2017-08-02T02:06:05.775Z,0
2017-08-02T02:07:07.504Z,0
2017-08-02T02:08:09.156Z,0
2017-08-02T02:09:10.910Z,0
2017-08-02T02:10:12.560Z,0
2017-08-02T02:11:14.284Z,0
2017-08-02T02:12:15.936Z,0
2017-08-02T02:13:17.741Z,0
2017-08-02T02:14:19.403Z,0
2017-08-02T02:15:23.169Z,0
2017-08-02T02:16:24.827Z,0
2017-08-02T02:17:26.602Z,0
2017-08-02T02:18:28.270Z,0
2017-08-02T02:19:29.969Z,0
2017-08-02T02:20:31.619Z,0
2017-08-02T02:21:33.382Z,0
2017-08-02T02:22:35.057Z,0
2017-08-02T02:23:36.777Z,0
2017-08-02T02:24:38.434Z,0
2017-08-02T02:25:40.137Z,0
2017-08-02T02:26:41.792Z,0
2017-08-02T02:27:43.530Z,0
2017-08-02T02:28:45.182Z,0
2017-08-02T02:29:46.923Z,0
2017-08-02T02:30:48.580Z,0
2017-08-02T02:31:51.338Z,0
2017-08-02T02:32:53.056Z,0
2017-08-02T02:33:54.745Z,0
2017-08-02T02:34:56.404Z,0
2017-08-02T02:35:58.138Z,0
2017-08-02T02:36:59.785Z,0
2017-08-02T02:38:01.519Z,0
2017-08-02T02:39:03.181Z,0
2017-08-02T02:40:04.917Z,0
2017-08-02T02:41:06.596Z,0
2017-08-02T02:42:08.308Z,0
2017-08-02T02:43:09.955Z,0
2017-08-02T02:44:11.702Z,0
2017-08-02T02:45:13.384Z,0
2017-08-02T02:46:15.104Z,0
2017-08-02T02:47:16.763Z,0
2017-08-02T02:48:18.491Z,0
2017-08-02T02:49:20.156Z,0
2017-08-02T02:50:21.886Z,0
2017-08-02T02:51:23.576Z,0
2017-08-02T02:52:25.277Z,0
2017-08-02T02:53:26.946Z,0
2017-08-02T02:54:28.665Z,0
2017-08-02T02:55:30.318Z,0
2017-08-02T02:56:32.054Z,0
2017-08-02T02:57:33.746Z,0
2017-08-02T02:58:35.449Z,0
2017-08-02T02:59:37.121Z,0
2017-08-02T03:00:38.834Z,0
2017-08-02T03:01:40.483Z,0
2017-08-02T03:02:42.228Z,0
2017-08-02T03:03:43.879Z,0
2017-08-02T03:04:45.618Z,0
2017-08-02T03:05:47.299Z,0
2017-08-02T03:06:49.023Z,0
2017-08-02T03:07:50.675Z,0
2017-08-02T03:08:52.419Z,0
2017-08-02T03:09:54.066Z,0
2017-08-02T03:10:55.798Z,0
2017-08-02T03:11:57.459Z,0
2017-08-02T03:12:59.854Z,0
2017-08-02T03:14:01.513Z,0
2017-08-02T03:15:03.279Z,0
2017-08-02T03:16:04.934Z,0
2017-08-02T03:17:06.696Z,0
2017-08-02T03:18:08.347Z,0
2017-08-02T03:19:10.083Z,0
2017-08-02T03:20:11.775Z,0
2017-08-02T03:21:13.448Z,0
2017-08-02T03:22:15.120Z,0
2017-08-02T03:23:16.849Z,0
2017-08-02T03:24:18.498Z,0
2017-08-02T03:25:21.274Z,0
2017-08-02T03:26:22.925Z,0
2017-08-02T03:27:24.648Z,0
2017-08-02T03:28:26.370Z,0
2017-08-02T03:29:28.129Z,0
2017-08-02T03:30:29.783Z,0
2017-08-02T03:31:31.536Z,4
2017-08-02T03:32:33.249Z,4
2017-08-02T03:33:34.928Z,4
2017-08-02T03:34:36.589Z,4
2017-08-02T03:35:38.339Z,4
2017-08-02T03:36:39.982Z,4
2017-08-02T03:37:41.728Z,4
2017-08-02T03:38:43.372Z,8
2017-08-02T03:39:45.129Z,8
2017-08-02T03:40:46.796Z,8
2017-08-02T03:41:48.523Z,8
2017-08-02T03:42:50.173Z,8
2017-08-02T03:43:51.931Z,12
2017-08-02T03:44:53.588Z,12
2017-08-02T03:45:55.607Z,12
2017-08-02T03:46:57.260Z,12
2017-08-02T03:47:58.953Z,16
2017-08-02T03:49:00.607Z,16
2017-08-02T03:50:02.260Z,24
2017-08-02T03:51:03.917Z,24
2017-08-02T03:52:05.565Z,24
2017-08-02T03:53:07.218Z,28
2017-08-02T03:54:08.862Z,32
2017-08-02T03:55:10.539Z,36
2017-08-02T03:56:12.218Z,36
2017-08-02T03:57:13.955Z,44
2017-08-02T03:58:15.623Z,44
2017-08-02T03:59:17.410Z,48
2017-08-02T04:00:19.065Z,52
2017-08-02T04:01:20.795Z,60
2017-08-02T04:02:22.514Z,60
2017-08-02T04:03:24.298Z,64
2017-08-02T04:04:26.027Z,72
2017-08-02T04:05:27.831Z,76
2017-08-02T04:06:29.493Z,80
2017-08-02T04:07:31.894Z,88
2017-08-02T04:08:33.577Z,96
2017-08-02T04:09:35.292Z,108
2017-08-02T04:10:36.966Z,116
2017-08-02T04:11:38.691Z,128
2017-08-02T04:12:40.539Z,144
2017-08-02T04:13:42.305Z,160
2017-08-02T04:14:43.958Z,176
2017-08-02T04:15:45.713Z,192
2017-08-02T04:16:47.382Z,208
2017-08-02T04:17:49.174Z,224
2017-08-02T04:18:50.828Z,232
2017-08-02T04:19:52.590Z,240
2017-08-02T04:20:54.244Z,252
2017-08-02T04:21:55.938Z,264
2017-08-02T04:22:57.589Z,268
2017-08-02T04:23:59.333Z,264
2017-08-02T04:25:00.998Z,260
2017-08-02T04:26:02.823Z,268
2017-08-02T04:27:04.478Z,284
2017-08-02T04:28:07.341Z,296
2017-08-02T04:29:09.009Z,300
2017-08-02T04:30:10.794Z,320
2017-08-02T04:31:12.442Z,328
2017-08-02T04:32:15.179Z,324
2017-08-02T04:33:16.833Z,296
2017-08-02T04:34:18.574Z,292
2017-08-02T04:35:20.234Z,312
2017-08-02T04:36:23.985Z,312
2017-08-02T04:37:25.658Z,336
2017-08-02T04:38:27.412Z,396
2017-08-02T04:39:29.278Z,416
2017-08-02T04:40:32.049Z,416
2017-08-02T04:41:33.707Z,420
2017-08-02T04:42:35.455Z,428
2017-08-02T04:43:37.108Z,424
2017-08-02T04:44:38.835Z,432
2017-08-02T04:45:40.484Z,456
2017-08-02T04:46:42.233Z,480
2017-08-02T04:47:43.930Z,488
2017-08-02T04:48:45.721Z,504
2017-08-02T04:49:47.394Z,504
2017-08-02T04:50:49.214Z,516
2017-08-02T04:51:50.877Z,508
2017-08-02T04:52:52.620Z,524
2017-08-02T04:53:54.276Z,504
2017-08-02T04:54:56.105Z,452
2017-08-02T04:55:57.761Z,448
2017-08-02T04:56:59.500Z,452
2017-08-02T04:58:01.158Z,432
2017-08-02T04:59:02.890Z,424
2017-08-02T05:00:04.544Z,464
2017-08-02T05:01:06.281Z,492
2017-08-02T05:02:07.937Z,468
2017-08-02T05:03:09.646Z,428
2017-08-02T05:04:11.313Z,428
2017-08-02T05:05:13.046Z,444
2017-08-02T05:06:14.704Z,484
2017-08-02T05:07:16.438Z,548
2017-08-02T05:08:18.095Z,592
2017-08-02T05:09:19.823Z,616
2017-08-02T05:10:21.485Z,664
2017-08-02T05:11:23.235Z,728
2017-08-02T05:12:24.894Z,748
2017-08-02T05:13:26.634Z,764
2017-08-02T05:14:28.334Z,824
2017-08-02T05:15:30.120Z,856
2017-08-02T05:16:31.818Z,840
2017-08-02T05:17:33.605Z,800
2017-08-02T05:18:35.280Z,784
2017-08-02T05:19:36.962Z,776
2017-08-02T05:20:38.632Z,768
2017-08-02T05:21:40.369Z,756
2017-08-02T05:22:42.044Z,744
2017-08-02T05:23:43.794Z,716
2017-08-02T05:24:45.449Z,752
2017-08-02T05:25:47.223Z,796
2017-08-02T05:26:48.874Z,792
2017-08-02T05:27:50.634Z,760
2017-08-02T05:28:52.320Z,740
2017-08-02T05:29:54.028Z,784
2017-08-02T05:30:55.688Z,808
2017-08-02T05:31:57.422Z,804
2017-08-02T05:32:59.081Z,812
2017-08-02T05:34:00.829Z,776
2017-08-02T05:35:02.479Z,636
2017-08-02T05:36:04.248Z,508
2017-08-02T05:37:05.932Z,460
2017-08-02T05:38:07.714Z,480
2017-08-02T05:39:09.391Z,500
2017-08-02T05:40:11.111Z,580
2017-08-02T05:41:12.788Z,652
2017-08-02T05:42:14.524Z,692
2017-08-02T05:43:16.177Z,724
2017-08-02T05:44:17.916Z,788
2017-08-02T05:45:19.574Z,868
2017-08-02T05:46:21.286Z,1000
2017-08-02T05:47:22.939Z,1024
2017-08-02T05:48:24.730Z,952
2017-08-02T05:49:26.394Z,912
2017-08-02T05:50:28.177Z,848
2017-08-02T05:51:29.838Z,800
2017-08-02T05:52:31.569Z,744
2017-08-02T05:53:33.237Z,736
2017-08-02T05:54:34.949Z,736
2017-08-02T05:55:36.598Z,724
2017-08-02T05:56:38.350Z,700
2017-08-02T05:57:40.001Z,652
2017-08-02T05:58:41.733Z,552
2017-08-02T05:59:43.388Z,480
2017-08-02T06:00:45.148Z,444
2017-08-02T06:01:46.868Z,500
2017-08-02T06:02:48.682Z,684
2017-08-02T06:03:50.339Z,764
2017-08-02T06:04:52.171Z,792
2017-08-02T06:05:53.828Z,840
2017-08-02T06:06:55.642Z,820
2017-08-02T06:07:57.302Z,840
2017-08-02T06:08:59.010Z,824
2017-08-02T06:10:00.660Z,808
2017-08-02T06:11:02.459Z,840
2017-08-02T06:12:04.120Z,852
2017-08-02T06:13:05.985Z,900
2017-08-02T06:14:07.636Z,984
2017-08-02T06:15:09.435Z,936
2017-08-02T06:16:11.123Z,864
2017-08-02T06:17:12.916Z,796
2017-08-02T06:18:14.575Z,840
2017-08-02T06:19:16.313Z,952
2017-08-02T06:20:18.038Z,964
2017-08-02T06:21:20.815Z,932
2017-08-02T06:22:22.493Z,940
2017-08-02T06:23:24.309Z,912
2017-08-02T06:24:25.973Z,884
2017-08-02T06:25:27.727Z,892
2017-08-02T06:26:29.409Z,820
2017-08-02T06:27:32.028Z,824
2017-08-02T06:28:34.600Z,824
2017-08-02T06:29:36.361Z,868
2017-08-02T06:30:38.022Z,892
2017-08-02T06:31:39.850Z,1036
2017-08-02T06:32:41.546Z,1156
2017-08-02T06:33:43.330Z,1232
2017-08-02T06:34:45.013Z,1360
2017-08-02T06:35:46.774Z,1660
2017-08-02T06:36:48.453Z,1804
2017-08-02T06:37:50.168Z,1952
2017-08-02T06:38:51.824Z,1932
2017-08-02T06:39:54.681Z,1784
2017-08-02T06:40:56.336Z,1460
2017-08-02T06:41:58.200Z,1192
2017-08-02T06:42:59.873Z,1156
2017-08-02T06:44:01.579Z,1216
2017-08-02T06:45:03.279Z,1148
2017-08-02T06:46:05.063Z,1176
2017-08-02T06:47:06.730Z,1088
2017-08-02T06:48:08.595Z,1072
2017-08-02T06:49:10.257Z,1124
2017-08-02T06:50:12.051Z,1248
2017-08-02T06:51:13.720Z,1180
2017-08-02T06:52:15.502Z,1096
2017-08-02T06:53:17.156Z,1068
2017-08-02T06:54:19.951Z,1128
2017-08-02T06:55:21.619Z,1164
2017-08-02T06:56:23.423Z,1188
2017-08-02T06:57:25.096Z,1376
2017-08-02T06:58:26.856Z,1744
2017-08-02T06:59:28.541Z,1912
2017-08-02T07:00:30.245Z,1748
2017-08-02T07:01:31.934Z,1660
2017-08-02T07:02:33.659Z,1756
2017-08-02T07:03:35.309Z,1884
2017-08-02T07:04:38.121Z,1924
2017-08-02T07:05:39.805Z,2020
2017-08-02T07:06:41.614Z,2180
2017-08-02T07:07:43.358Z,2208
2017-08-02T07:08:45.188Z,2144
2017-08-02T07:09:46.913Z,1960
2017-08-02T07:10:48.661Z,1924
2017-08-02T07:11:50.345Z,2116
2017-08-02T07:12:52.180Z,2128
2017-08-02T07:13:53.879Z,2148
2017-08-02T07:14:55.695Z,2380
2017-08-02T07:15:57.349Z,2664
2017-08-02T07:16:59.150Z,2648
2017-08-02T07:18:00.839Z,2464
2017-08-02T07:19:02.694Z,2336
2017-08-02T07:20:04.432Z,2280
2017-08-02T07:21:06.152Z,2368
2017-08-02T07:22:07.886Z,2616
2017-08-02T07:23:09.734Z,2596
2017-08-02T07:24:11.441Z,2304
2017-08-02T07:25:13.174Z,2552
2017-08-02T07:26:14.878Z,2560
2017-08-02T07:27:16.720Z,2364
2017-08-02T07:28:25.387Z,2196
2017-08-02T07:29:27.173Z,2280
2017-08-02T07:30:30.035Z,2440
2017-08-02T07:31:31.805Z,2544
2017-08-02T07:32:33.634Z,2748
2017-08-02T07:33:35.379Z,3048
2017-08-02T07:34:37.074Z,2860
2017-08-02T07:35:38.824Z,2780
2017-08-02T07:36:40.877Z,3028
2017-08-02T07:37:42.592Z,2748
2017-08-02T07:38:44.382Z,2876
2017-08-02T07:39:46.147Z,3180
2017-08-02T07:40:47.929Z,2968
2017-08-02T07:41:49.718Z,2896
2017-08-02T07:42:51.461Z,3164
2017-08-02T07:43:53.199Z,2944
2017-08-02T07:44:54.944Z,2752
2017-08-02T07:45:56.715Z,2904
2017-08-02T07:46:58.449Z,3512
2017-08-02T07:48:00.104Z,3212
2017-08-02T07:49:01.858Z,3096
2017-08-02T07:50:03.586Z,3252
2017-08-02T07:51:05.321Z,3412
2017-08-02T07:52:07.044Z,3320
2017-08-02T07:53:08.794Z,3224
2017-08-02T07:54:11.356Z,3212
2017-08-02T07:55:14.088Z,2784
2017-08-02T07:56:15.816Z,2400
2017-08-02T07:57:17.514Z,2240
2017-08-02T07:58:19.273Z,2288
2017-08-02T07:59:21.009Z,2256
2017-08-02T08:00:22.731Z,2468
2017-08-02T08:01:24.478Z,2704
2017-08-02T08:02:26.142Z,2568
2017-08-02T08:03:27.935Z,2544
2017-08-02T08:04:29.688Z,2588
2017-08-02T08:05:31.412Z,2688
2017-08-02T08:06:33.183Z,2740
2017-08-02T08:07:34.894Z,2808
2017-08-02T08:08:36.628Z,2812
2017-08-02T08:09:38.312Z,2688
2017-08-02T08:10:40.050Z,2636
2017-08-02T08:11:41.776Z,2508
2017-08-02T08:12:43.560Z,2388
2017-08-02T08:13:45.309Z,2528
2017-08-02T08:14:47.057Z,2644
2017-08-02T08:15:49.785Z,2832
2017-08-02T08:16:51.554Z,3328
2017-08-02T08:17:53.333Z,3152
2017-08-02T08:18:55.093Z,3068
2017-08-02T08:19:56.771Z,3348
2017-08-02T08:20:58.516Z,3312
2017-08-02T08:22:00.248Z,2548
2017-08-02T08:23:01.979Z,2292
2017-08-02T08:24:03.794Z,2216
2017-08-02T08:25:05.488Z,2240
2017-08-02T08:26:07.232Z,2228
2017-08-02T08:27:08.915Z,2236
2017-08-02T08:28:10.660Z,2212
2017-08-02T08:29:12.408Z,1948
2017-08-02T08:30:14.140Z,1660
2017-08-02T08:31:15.896Z,1620
2017-08-02T08:32:17.599Z,1592
2017-08-02T08:33:19.353Z,1636
2017-08-02T08:34:21.144Z,2112
2017-08-02T08:35:22.906Z,2696
2017-08-02T08:36:24.731Z,2900
2017-08-02T08:37:26.492Z,2452
2017-08-02T08:38:28.215Z,1992
2017-08-02T08:39:29.947Z,2116
2017-08-02T08:40:31.688Z,2304
2017-08-02T08:41:33.473Z,2564
2017-08-02T08:42:35.130Z,3332
2017-08-02T08:43:36.847Z,4048
2017-08-02T08:44:38.605Z,4320
2017-08-02T08:45:40.360Z,3276
2017-08-02T08:46:42.114Z,2288
2017-08-02T08:47:43.814Z,1408
2017-08-02T08:48:45.582Z,1420
2017-08-02T08:49:47.232Z,1540
2017-08-02T08:50:48.956Z,1692
2017-08-02T08:51:50.690Z,1760
2017-08-02T08:52:52.423Z,2012
2017-08-02T08:53:54.154Z,2704
2017-08-02T08:54:55.922Z,2424
2017-08-02T08:55:57.674Z,2380
2017-08-02T08:56:59.345Z,2696
2017-08-02T08:58:01.082Z,3284
2017-08-02T08:59:02.824Z,3476
2017-08-02T09:00:04.579Z,3216
2017-08-02T09:01:06.318Z,2940
2017-08-02T09:02:07.992Z,2580
2017-08-02T09:03:09.721Z,3240
2017-08-02T09:04:11.442Z,2756
2017-08-02T09:05:13.196Z,2168
2017-08-02T09:06:14.918Z,1908
2017-08-02T09:07:16.657Z,1328
2017-08-02T09:08:18.478Z,1128
2017-08-02T09:09:20.238Z,1332
2017-08-02T09:10:22.049Z,1988
2017-08-02T09:11:24.874Z,2616
2017-08-02T09:12:26.620Z,3180
2017-08-02T09:13:28.406Z,3960
2017-08-02T09:14:30.133Z,4648
2017-08-02T09:15:31.868Z,4380
2017-08-02T09:16:33.639Z,3940
2017-08-02T09:17:35.445Z,3564
2017-08-02T09:18:37.185Z,3636
2017-08-02T09:19:38.933Z,3076
2017-08-02T09:20:40.698Z,2900
2017-08-02T09:21:42.421Z,2660
2017-08-02T09:22:44.112Z,2616
2017-08-02T09:23:47.084Z,2560
2017-08-02T09:24:48.853Z,2556
2017-08-02T09:25:50.686Z,2628
2017-08-02T09:26:52.436Z,2680
2017-08-02T09:27:54.262Z,2944
2017-08-02T09:28:56.400Z,2928
2017-08-02T09:29:59.162Z,3180
2017-08-02T09:31:02.166Z,3500
2017-08-02T09:32:03.985Z,3252
2017-08-02T09:33:06.360Z,2904
2017-08-02T09:34:08.129Z,2220
2017-08-02T09:35:09.969Z,2864
2017-08-02T09:36:11.754Z,3184
2017-08-02T09:37:13.591Z,3332
2017-08-02T09:38:17.524Z,3344
2017-08-02T09:39:19.384Z,3212
2017-08-02T09:40:21.232Z,3620
2017-08-02T09:41:22.900Z,3208
2017-08-02T09:42:24.634Z,3252
2017-08-02T09:43:26.402Z,2864
2017-08-02T09:44:28.197Z,2612
2017-08-02T09:45:29.920Z,2840
2017-08-02T09:46:31.641Z,2780
2017-08-02T09:47:33.366Z,2476
2017-08-02T09:48:35.215Z,2240
2017-08-02T09:49:36.992Z,2380
2017-08-02T09:50:38.765Z,2124
2017-08-02T09:51:40.508Z,2008
2017-08-02T09:52:43.582Z,1924
2017-08-02T09:53:45.425Z,2036
2017-08-02T09:54:47.165Z,2704
2017-08-02T09:55:48.907Z,2248
2017-08-02T09:56:50.646Z,2368
2017-08-02T09:57:52.312Z,2612
2017-08-02T09:58:54.271Z,2812
2017-08-02T09:59:56.043Z,2644
2017-08-02T10:01:02.635Z,2464
2017-08-02T10:02:04.417Z,2452
2017-08-02T10:03:06.137Z,2388
2017-08-02T10:04:07.872Z,2492
2017-08-02T10:05:21.576Z,2412
2017-08-02T10:06:23.565Z,2600
2017-08-02T10:10:33.791Z,2232
2017-08-02T10:11:35.577Z,2048
2017-08-02T10:12:43.070Z,2092
2017-08-02T10:13:44.759Z,1932
2017-08-02T10:21:43.303Z,2484
2017-08-02T10:22:45.250Z,2924
2017-08-02T10:23:48.986Z,3140
2017-08-02T10:24:50.765Z,2884
2017-08-02T10:25:53.004Z,2960
2017-08-02T10:26:54.692Z,3440
2017-08-02T10:29:41.700Z,3324
2017-08-02T10:30:43.478Z,3192
2017-08-02T10:31:51.123Z,3224
2017-08-02T10:32:53.635Z,3256
2017-08-02T10:33:56.067Z,3196
2017-08-02T10:34:57.790Z,2988
2017-08-02T10:36:00.620Z,2844
2017-08-02T10:37:02.383Z,3056
2017-08-02T10:38:11.083Z,2864
2017-08-02T10:39:12.795Z,2972
2017-08-02T10:40:20.575Z,3100
2017-08-02T10:41:22.556Z,2992
2017-08-02T10:42:24.526Z,3028
2017-08-02T10:43:26.254Z,3104
2017-08-02T10:44:28.320Z,2924
2017-08-02T10:45:30.162Z,2788
2017-08-02T10:46:33.924Z,2788
2017-08-02T10:47:35.627Z,2880
2017-08-02T10:48:43.118Z,3044
2017-08-02T10:49:44.883Z,3260
2017-08-02T10:50:47.718Z,3292
2017-08-02T10:51:49.467Z,3284
2017-08-02T10:52:57.099Z,3236
2017-08-02T10:53:58.794Z,3068
2017-08-02T10:55:15.574Z,2888
2017-08-02T10:56:17.299Z,2796
2017-08-02T10:57:30.042Z,2980
2017-08-02T10:58:31.774Z,3332
2017-08-02T10:59:35.232Z,3424
2017-08-02T11:00:36.942Z,3324
2017-08-02T11:01:54.623Z,3128
2017-08-02T11:02:58.400Z,2916
2017-08-02T11:04:07.143Z,2736
2017-08-02T11:05:08.873Z,2676
2017-08-02T11:06:10.627Z,2664
2017-08-02T11:07:12.384Z,2796
2017-08-02T11:08:14.228Z,3012
2017-08-02T11:09:15.951Z,3264
2017-08-02T11:10:18.757Z,3280
2017-08-02T11:11:21.436Z,3280
2017-08-02T11:12:23.240Z,3064
2017-08-02T11:13:24.979Z,2876
2017-08-02T11:14:27.839Z,2876
2017-08-02T11:15:29.560Z,3260
2017-08-02T11:16:32.720Z,3412
2017-08-02T11:17:34.429Z,3192
2017-08-02T11:18:36.133Z,3100
2017-08-02T11:19:37.898Z,3188
2017-08-02T11:20:40.730Z,3096
2017-08-02T11:21:42.480Z,2756
2017-08-02T11:22:55.102Z,2684
2017-08-02T11:23:56.866Z,2844
2017-08-02T11:24:59.622Z,2944
2017-08-02T11:26:01.291Z,3132
2017-08-02T11:27:03.166Z,3448
2017-08-02T11:28:04.907Z,3196
2017-08-02T11:29:11.505Z,3160
2017-08-02T11:30:13.222Z,3520
2017-08-02T11:33:55.141Z,3620
2017-08-02T11:34:56.956Z,3164
2017-08-02T11:35:58.692Z,2824
2017-08-02T11:37:00.622Z,2540
2017-08-02T11:38:02.378Z,2124
2017-08-02T11:39:04.182Z,1840
2017-08-02T11:40:05.923Z,1520
2017-08-02T11:41:12.551Z,1300
2017-08-02T11:42:15.463Z,1352
2017-08-02T11:44:29.023Z,1820
2017-08-02T11:45:31.662Z,1976
2017-08-02T11:46:33.315Z,2216
2017-08-02T11:47:36.138Z,2392
2017-08-02T11:48:37.881Z,2568
2017-08-02T11:49:39.693Z,2704
2017-08-02T11:50:41.920Z,2816
2017-08-02T11:51:44.770Z,2952
2017-08-02T11:52:46.916Z,3024
2017-08-02T11:53:50.773Z,3036
2017-08-02T11:54:52.486Z,3028
2017-08-02T11:55:55.479Z,2988
2017-08-02T11:56:57.210Z,2920
2017-08-02T11:57:59.946Z,2840
2017-08-02T11:59:01.674Z,2772
2017-08-02T12:00:03.540Z,2740
2017-08-02T12:01:05.358Z,2744
2017-08-02T12:02:08.142Z,2708
2017-08-02T12:03:09.801Z,2772
2017-08-02T12:04:11.624Z,2804
2017-08-02T12:05:13.451Z,2736
2017-08-02T12:06:18.076Z,2672
2017-08-02T12:07:19.749Z,2396
2017-08-02T12:08:21.511Z,2244
2017-08-02T12:09:23.277Z,2264
2017-08-02T12:10:30.793Z,2288
2017-08-02T12:11:32.508Z,2400
2017-08-02T12:12:40.005Z,2716
2017-08-02T12:13:41.940Z,2588
2017-08-02T12:14:44.917Z,2512
2017-08-02T12:15:46.610Z,2532
2017-08-02T12:16:50.469Z,2372
2017-08-02T12:17:52.253Z,2200
2017-08-02T12:18:55.995Z,2188
2017-08-02T12:19:57.733Z,2192
2017-08-02T12:21:00.236Z,2292
2017-08-02T12:22:01.964Z,2244
2017-08-02T12:23:19.330Z,2244
2017-08-02T12:24:21.068Z,2032
2017-08-02T12:25:22.863Z,1860
2017-08-02T12:26:24.551Z,1628
2017-08-02T12:27:27.311Z,1552
2017-08-02T12:28:29.043Z,1596
2017-08-02T12:29:35.512Z,1824
2017-08-02T12:30:37.274Z,2176
2017-08-02T12:31:40.085Z,2352
2017-08-02T12:32:41.844Z,2240
2017-08-02T12:33:43.732Z,1944
2017-08-02T12:34:45.498Z,1736
2017-08-02T12:35:47.283Z,1544
2017-08-02T12:36:49.004Z,1472
2017-08-02T12:37:50.730Z,1252
2017-08-02T12:38:52.451Z,1188
2017-08-02T12:39:55.171Z,1108
2017-08-02T12:40:56.937Z,1108
2017-08-02T12:41:59.774Z,1204
2017-08-02T12:43:01.493Z,1324
2017-08-02T12:44:05.295Z,1416
2017-08-02T12:45:07.024Z,1556
2017-08-02T12:46:08.821Z,1564
2017-08-02T12:47:10.548Z,1764
2017-08-02T12:48:12.362Z,1924
2017-08-02T12:49:14.108Z,2056
2017-08-02T12:50:15.896Z,2056
2017-08-02T12:51:17.664Z,2012
2017-08-02T12:52:19.476Z,1908
2017-08-02T12:53:22.068Z,1740
2017-08-02T12:54:23.813Z,1620
2017-08-02T12:55:25.518Z,1672
2017-08-02T12:56:27.369Z,2004
2017-08-02T12:57:29.127Z,2260
2017-08-02T12:58:30.885Z,2248
2017-08-02T12:59:32.669Z,2024
2017-08-02T13:00:34.630Z,1852
2017-08-02T13:01:36.699Z,1736
2017-08-02T13:02:38.479Z,1668
2017-08-02T13:03:40.207Z,1648
2017-08-02T13:04:42.949Z,1656
2017-08-02T13:05:44.760Z,1628
2017-08-02T13:06:46.534Z,1524
2017-08-02T13:07:48.285Z,1496
2017-08-02T13:08:50.006Z,1480
2017-08-02T13:09:51.763Z,1472
2017-08-02T13:10:53.514Z,1476
2017-08-02T13:11:55.371Z,1516
2017-08-02T13:12:57.149Z,1552
2017-08-02T13:13:58.891Z,1688
2017-08-02T13:15:00.742Z,1752
2017-08-02T13:16:02.507Z,1748
2017-08-02T13:17:04.177Z,1992
2017-08-02T13:18:05.871Z,2048
2017-08-02T13:19:07.865Z,2080
2017-08-02T13:20:11.684Z,2132
2017-08-02T13:21:13.450Z,2248
2017-08-02T13:22:17.047Z,2376
2017-08-02T13:23:18.768Z,2472
2017-08-02T13:24:20.495Z,2492
2017-08-02T13:25:22.159Z,2672
2017-08-02T13:26:28.111Z,2720
2017-08-02T13:27:29.967Z,2816
2017-08-02T13:28:31.848Z,2800
2017-08-02T13:29:33.687Z,2864
2017-08-02T13:30:35.408Z,2880
2017-08-02T13:31:37.245Z,2848
2017-08-02T13:32:38.932Z,2700
2017-08-02T13:33:40.750Z,2580
2017-08-02T13:34:42.500Z,2360
2017-08-02T13:35:44.328Z,2304
2017-08-02T13:36:46.085Z,2324
2017-08-02T13:37:49.063Z,2244
2017-08-02T13:38:51.220Z,2076
2017-08-02T13:39:52.967Z,2032
2017-08-02T13:40:54.702Z,1860
2017-08-02T13:41:57.414Z,1720
2017-08-02T13:42:59.094Z,1624
2017-08-02T13:44:00.823Z,1568
2017-08-02T13:45:02.603Z,1628
2017-08-02T13:46:05.406Z,1680
2017-08-02T13:47:07.141Z,1752
2017-08-02T13:48:08.903Z,1852
2017-08-02T13:49:10.691Z,2112
2017-08-02T13:50:12.513Z,2084
2017-08-02T13:51:14.183Z,2000
2017-08-02T13:52:15.906Z,1888
2017-08-02T13:53:17.582Z,1796
2017-08-02T13:54:19.396Z,1732
2017-08-02T13:55:21.127Z,1692
2017-08-02T13:56:28.916Z,1764
2017-08-02T13:57:30.662Z,1880
2017-08-02T13:58:33.483Z,1964
2017-08-02T13:59:35.208Z,2112
2017-08-02T14:00:38.060Z,2208
2017-08-02T14:01:39.785Z,2108
2017-08-02T14:02:41.528Z,2040
2017-08-02T14:03:43.250Z,1976
2017-08-02T14:04:45.121Z,1912
2017-08-02T14:05:46.856Z,1956
2017-08-02T14:06:48.732Z,2092
2017-08-02T14:07:50.467Z,2232
2017-08-02T14:08:52.286Z,2264
2017-08-02T14:09:54.026Z,2060
2017-08-02T14:10:55.720Z,1904
2017-08-02T14:11:57.455Z,1908
2017-08-02T14:12:59.282Z,1944
2017-08-02T14:14:01.015Z,2008
2017-08-02T14:15:03.839Z,1996
2017-08-02T14:16:05.494Z,1956
2017-08-02T14:17:07.279Z,1876
2017-08-02T14:18:09.002Z,1856
2017-08-02T14:19:10.782Z,1960
2017-08-02T14:20:12.567Z,2160
2017-08-02T14:21:14.384Z,2332
2017-08-02T14:22:16.110Z,2456
2017-08-02T14:23:17.879Z,2568
2017-08-02T14:24:19.609Z,2600
2017-08-02T14:25:21.377Z,2520
2017-08-02T14:26:23.034Z,2612
2017-08-02T14:27:25.808Z,2604
2017-08-02T14:28:27.537Z,2288
2017-08-02T14:29:30.374Z,2060
2017-08-02T14:30:32.343Z,2040